Time;durP1;ratioP1;P1;durP2;ratioP2;P2;SDS_P1;SDS_P2;PMS_P1;PMS_P2;Temp;Humidity;BMP_temperature;BMP_pressure;BME280_temperature;BME280_humidity;BME280_pressure;Samples;Min_cycle;Max_cycle;Signal;HPM_P1;HPM_P2
2022/04/08 00:01:07;;;;;;;4.47;1.10;;;;;;;5.16;100.00;99536.72;5068863;28;20048;-52
2022/04/08 00:03:35;;;;;;;12.68;2.20;;;;;;;5.11;100.00;99543.16;5067963;28;20041;-55
2022/04/08 00:06:03;;;;;;;6.50;1.75;;;;;;;5.09;100.00;99540.66;5067315;28;20048;-55
2022/04/08 00:08:33;;;;;;;14.50;1.40;;;;;;;5.13;100.00;99546.53;5067612;28;20499;-56
2022/04/08 00:11:01;;;;;;;6.45;1.00;;;;;;;5.12;100.00;99552.66;5067662;28;20443;-56
2022/04/08 00:13:29;;;;;;;6.63;1.00;;;;;;;5.13;100.00;99556.94;5066834;28;20082;-55
2022/04/08 00:15:57;;;;;;;5.93;1.23;;;;;;;5.07;100.00;99559.00;5067361;28;20056;-55
2022/04/08 00:18:25;;;;;;;11.45;1.33;;;;;;;5.10;100.00;99563.19;5063082;28;20049;-54
2022/04/08 00:20:53;;;;;;;5.75;1.08;;;;;;;5.05;100.00;99571.28;5066867;28;20048;-56
2022/04/08 00:23:21;;;;;;;7.60;1.30;;;;;;;5.05;100.00;99573.06;5068358;28;20056;-58
2022/04/08 00:25:51;;;;;;;7.97;1.52;;;;;;;5.06;100.00;99579.94;5068527;28;20084;-58
2022/04/08 00:28:19;;;;;;;7.50;1.00;;;;;;;5.07;100.00;99584.19;5068248;28;20689;-58
2022/04/08 00:30:47;;;;;;;6.25;1.48;;;;;;;5.06;100.00;99585.16;5067018;28;20158;-58
2022/04/08 00:33:15;;;;;;;7.60;1.38;;;;;;;5.07;100.00;99589.41;5067333;28;20052;-59
2022/04/08 00:35:43;;;;;;;4.45;1.10;;;;;;;5.10;100.00;99604.88;5068343;28;20399;-58
2022/04/08 00:38:11;;;;;;;11.18;1.60;;;;;;;5.09;100.00;99600.59;5067861;28;20055;-58
2022/04/08 00:40:39;;;;;;;5.72;1.30;;;;;;;5.01;100.00;99624.50;5068346;28;20052;-58
2022/04/08 00:43:13;;;;;;;6.50;1.15;;;;;;;4.96;100.00;99617.91;5067815;28;20489;-58
2022/04/08 00:45:42;;;;;;;6.93;1.10;;;;;;;4.97;100.00;99624.81;5068398;28;20123;-58
2022/04/08 00:48:11;;;;;;;9.05;1.27;;;;;;;4.95;100.00;99632.72;5066450;28;20515;-58
2022/04/08 00:50:41;;;;;;;6.57;1.40;;;;;;;4.91;100.00;99637.28;5068036;28;20049;-58
2022/04/08 00:53:09;;;;;;;7.93;1.20;;;;;;;4.88;100.00;99642.69;5067777;28;20056;-58
2022/04/08 00:55:39;;;;;;;7.22;1.10;;;;;;;4.91;100.00;99647.69;5070362;28;20415;-58
2022/04/08 00:58:08;;;;;;;8.48;1.48;;;;;;;4.93;100.00;99645.00;5071744;28;20127;-58
2022/04/08 01:00:39;;;;;;;6.53;1.10;;;;;;;4.93;100.00;99650.22;5072363;28;20090;-58
2022/04/08 01:03:07;;;;;;;8.77;1.48;;;;;;;4.95;100.00;99664.00;5070683;28;20048;-58
2022/04/08 01:05:35;;;;;;;6.22;1.20;;;;;;;4.94;100.00;99657.09;5072148;28;20052;-58
2022/04/08 01:08:04;;;;;;;5.60;1.02;;;;;;;4.90;100.00;99672.06;5071684;28;20060;-58
2022/04/08 01:10:33;;;;;;;7.95;1.20;;;;;;;4.87;100.00;99676.66;5071677;28;20072;-58
2022/04/08 01:13:02;;;;;;;6.28;1.30;;;;;;;4.87;100.00;99667.06;5071354;28;20147;-59
2022/04/08 01:15:31;;;;;;;5.18;1.40;;;;;;;4.84;100.00;99677.66;5071827;28;20053;-58
2022/04/08 01:18:00;;;;;;;7.97;1.40;;;;;;;4.88;100.00;99683.50;5070309;28;20053;-58
2022/04/08 01:20:28;;;;;;;9.82;1.60;;;;;;;4.89;100.00;99679.97;5071657;28;20335;-58
2022/04/08 01:22:56;;;;;;;5.93;1.30;;;;;;;4.84;100.00;99695.03;5071252;28;20052;-58
2022/04/08 01:25:26;;;;;;;10.35;1.20;;;;;;;4.82;100.00;99697.75;5071076;28;20075;-58
2022/04/08 01:27:54;;;;;;;6.72;1.52;;;;;;;4.82;100.00;99700.34;5070865;28;20430;-58
2022/04/08 01:30:22;;;;;;;9.30;1.40;;;;;;;4.77;100.00;99701.56;5071622;28;20395;-55
2022/04/08 01:32:50;;;;;;;9.60;1.63;;;;;;;4.73;100.00;99711.31;5070083;28;20068;-57
2022/04/08 01:35:18;;;;;;;11.63;1.50;;;;;;;4.66;100.00;99699.59;5071161;28;20063;-56
2022/04/08 01:37:46;;;;;;;8.05;1.23;;;;;;;4.64;100.00;99709.28;5071253;28;20496;-56
2022/04/08 01:40:14;;;;;;;11.55;1.30;;;;;;;4.62;100.00;99722.38;5071122;28;20499;-56
2022/04/08 01:42:44;;;;;;;9.25;1.33;;;;;;;4.60;100.00;99715.59;5070739;28;20080;-56
2022/04/08 01:45:13;;;;;;;12.18;1.65;;;;;;;4.59;100.00;99719.94;5070736;28;20052;-56
2022/04/08 01:47:41;;;;;;;9.90;1.55;;;;;;;4.54;100.00;99725.41;5070306;28;20052;-55
2022/04/08 01:50:10;;;;;;;10.18;1.42;;;;;;;4.43;100.00;99733.03;5070570;28;20045;-56
2022/04/08 01:52:39;;;;;;;9.23;1.65;;;;;;;4.40;100.00;99730.56;5071673;28;20051;-55
2022/04/08 01:55:08;;;;;;;9.23;1.33;;;;;;;4.42;100.00;99738.28;5070890;28;20106;-55
2022/04/08 01:57:36;;;;;;;12.75;1.45;;;;;;;4.36;100.00;99734.28;5071048;28;20475;-55
2022/04/08 02:00:08;;;;;;;13.13;2.30;;;;;;;4.30;100.00;99739.84;5071139;28;20052;-56
2022/04/08 02:02:37;;;;;;;12.80;1.70;;;;;;;4.27;100.00;99740.84;5070334;28;20054;-55
2022/04/08 02:05:05;;;;;;;13.27;1.73;;;;;;;4.25;100.00;99742.69;5070065;28;20072;-58
2022/04/08 02:07:34;;;;;;;11.00;1.58;;;;;;;4.27;100.00;99742.59;5070054;28;20052;-58
2022/04/08 02:10:02;;;;;;;11.13;1.38;;;;;;;4.22;100.00;99738.50;5070734;28;20778;-58
2022/04/08 02:12:30;;;;;;;9.18;2.08;;;;;;;4.24;100.00;99743.63;5070491;28;20053;-58
2022/04/08 02:14:58;;;;;;;11.20;2.00;;;;;;;4.14;100.00;99737.25;5070973;28;20125;-58
2022/04/08 02:17:28;;;;;;;7.15;1.15;;;;;;;4.13;100.00;99741.63;5070505;28;20139;-56
2022/04/08 02:19:57;;;;;;;12.15;2.40;;;;;;;4.11;100.00;99750.44;5069309;28;20036;-56
2022/04/08 02:22:26;;;;;;;10.50;1.70;;;;;;;4.10;100.00;99754.78;5070740;28;20115;-56
2022/04/08 02:24:55;;;;;;;10.48;1.73;;;;;;;4.05;100.00;99746.44;5070681;28;20048;-58
2022/04/08 02:27:26;;;;;;;11.25;1.35;;;;;;;4.07;100.00;99741.97;5070478;28;20051;-58
2022/04/08 02:29:54;;;;;;;9.60;1.83;;;;;;;4.01;100.00;99750.13;5069804;28;20059;-58
2022/04/08 02:32:22;;;;;;;10.35;2.65;;;;;;;4.01;100.00;99753.56;5070179;28;20409;-58
2022/04/08 02:34:52;;;;;;;11.88;2.10;;;;;;;4.01;100.00;99750.94;5068295;28;20523;-55
2022/04/08 02:37:21;;;;;;;14.65;2.50;;;;;;;3.98;100.00;99750.28;5070442;28;20045;-54
2022/04/08 02:39:49;;;;;;;10.20;1.70;;;;;;;3.98;100.00;99742.47;5070106;28;20056;-58
2022/04/08 02:42:17;;;;;;;14.02;1.95;;;;;;;3.96;100.00;99747.75;5070394;28;20051;-58
2022/04/08 02:44:45;;;;;;;15.50;1.77;;;;;;;3.93;100.00;99745.34;5070011;28;20040;-58
2022/04/08 02:47:14;;;;;;;9.73;2.08;;;;;;;3.87;100.00;99754.31;5069722;28;20044;-58
2022/04/08 02:49:42;;;;;;;11.77;2.13;;;;;;;3.87;100.00;99758.66;5068505;28;20090;-58
2022/04/08 02:52:11;;;;;;;10.95;1.63;;;;;;;3.79;100.00;99760.84;5070258;28;20170;-54
2022/04/08 02:54:39;;;;;;;7.43;1.35;;;;;;;3.72;100.00;99750.78;5069881;28;20075;-56
2022/04/08 02:57:07;;;;;;;12.43;2.17;;;;;;;3.66;100.00;99760.69;5069738;28;20060;-56
2022/04/08 02:59:35;;;;;;;10.45;1.65;;;;;;;3.71;100.00;99763.88;5069796;28;20056;-56
2022/04/08 03:02:04;;;;;;;13.95;1.77;;;;;;;3.71;100.00;99769.06;5069297;28;20045;-56
2022/04/08 03:04:32;;;;;;;20.65;3.33;;;;;;;3.76;100.00;99779.22;5067814;28;20511;-55
2022/04/08 03:07:01;;;;;;;9.27;1.50;;;;;;;3.70;100.00;99780.41;5068985;28;20118;-56
2022/04/08 03:09:30;;;;;;;10.07;1.50;;;;;;;3.62;100.00;99785.16;5069986;28;20048;-56
2022/04/08 03:11:58;;;;;;;9.60;1.55;;;;;;;3.59;100.00;99785.34;5069391;28;20076;-56
2022/04/08 03:14:27;;;;;;;8.40;1.60;;;;;;;3.64;100.00;99780.72;5068365;28;20059;-58
2022/04/08 03:16:55;;;;;;;9.60;1.17;;;;;;;3.68;100.00;99779.63;5069809;28;20046;-55
2022/04/08 03:19:23;;;;;;;11.98;2.83;;;;;;;3.67;100.00;99794.41;5066265;28;20400;-54
2022/04/08 03:21:51;;;;;;;13.98;1.50;;;;;;;3.65;100.00;99800.59;5069459;28;20044;-58
2022/04/08 03:24:19;;;;;;;8.45;1.77;;;;;;;3.68;100.00;99810.81;5069480;28;20117;-54
2022/04/08 03:26:49;;;;;;;9.32;1.55;;;;;;;3.65;100.00;99818.81;5069106;28;20045;-55
2022/04/08 03:29:17;;;;;;;9.45;1.70;;;;;;;3.66;100.00;99823.09;5068554;28;20419;-55
2022/04/08 03:31:45;;;;;;;10.85;1.33;;;;;;;3.61;100.00;99820.72;5069206;28;20051;-55
2022/04/08 03:34:14;;;;;;;11.43;1.92;;;;;;;3.67;100.00;99819.56;5067294;28;20499;-56
2022/04/08 03:36:42;;;;;;;8.57;1.48;;;;;;;3.68;100.00;99827.28;5069105;28;20052;-58
2022/04/08 03:39:10;;;;;;;11.25;1.88;;;;;;;3.77;100.00;99831.16;5068680;28;20060;-58
2022/04/08 03:41:39;;;;;;;8.55;1.77;;;;;;;3.74;100.00;99841.72;5069301;28;20443;-57
2022/04/08 03:44:09;;;;;;;7.47;1.10;;;;;;;3.76;100.00;99842.47;5068617;28;20906;-58
2022/04/08 03:46:37;;;;;;;9.68;1.73;;;;;;;3.71;100.00;99837.53;5069107;28;20499;-54
2022/04/08 03:49:14;;;;;;;7.32;1.88;;;;;;;3.72;100.00;99852.22;5066987;28;20045;-56
2022/04/08 03:51:42;;;;;;;10.32;1.48;;;;;;;3.74;100.00;99846.94;5068593;28;20499;-56
2022/04/08 03:54:18;;;;;;;10.10;1.60;;;;;;;3.74;100.00;99849.53;5069029;28;20055;-55
2022/04/08 03:56:46;;;;;;;8.48;1.40;;;;;;;3.69;100.00;99854.94;5068981;28;20483;-57
2022/04/08 03:59:16;;;;;;;10.32;1.45;;;;;;;3.69;100.00;99860.16;5067990;28;20052;-54
2022/04/08 04:01:44;;;;;;;7.88;1.60;;;;;;;3.68;100.00;99858.50;5068493;28;20041;-56
2022/04/08 04:04:13;;;;;;;6.85;1.55;;;;;;;3.71;100.00;99857.50;5066945;28;20079;-55
2022/04/08 04:06:41;;;;;;;8.20;1.30;;;;;;;3.65;100.00;99858.63;5068589;28;20109;-56
2022/04/08 04:09:09;;;;;;;4.85;1.10;;;;;;;3.60;100.00;99860.66;5067001;28;20098;-56
2022/04/08 04:11:37;;;;;;;7.45;1.48;;;;;;;3.50;100.00;99862.88;5067305;28;20045;-57
2022/04/08 04:14:06;;;;;;;5.60;1.20;;;;;;;3.49;100.00;99858.59;5068057;28;20044;-57
2022/04/08 04:16:36;;;;;;;6.93;1.90;;;;;;;3.52;100.00;99848.03;5068773;28;20639;-54
2022/04/08 04:19:04;;;;;;;7.60;1.30;;;;;;;3.44;100.00;99855.41;5066220;28;20067;-55
2022/04/08 04:21:32;;;;;;;4.50;1.23;;;;;;;3.37;100.00;99859.25;5068284;28;20044;-54
2022/04/08 04:24:01;;;;;;;6.05;1.35;;;;;;;3.36;100.00;99863.56;5068312;28;20070;-52
2022/04/08 04:26:28;;;;;;;3.50;1.10;;;;;;;3.30;100.00;99845.72;5068450;28;20082;-56
2022/04/08 04:28:56;;;;;;;3.70;1.00;;;;;;;3.33;100.00;99848.16;5068148;28;20065;-58
2022/04/08 04:31:24;;;;;;;5.00;1.20;;;;;;;3.31;100.00;99846.53;5068063;28;20110;-55
2022/04/08 04:33:54;;;;;;;6.00;1.52;;;;;;;3.24;100.00;99845.19;5066743;28;20044;-58
2022/04/08 04:36:22;;;;;;;3.72;1.00;;;;;;;3.22;100.00;99840.06;5068154;28;20480;-55
2022/04/08 04:38:50;;;;;;;5.70;1.10;;;;;;;3.20;100.00;99842.75;5067811;28;20048;-55
2022/04/08 04:41:20;;;;;;;4.72;0.95;;;;;;;3.16;100.00;99841.22;5068583;28;20110;-57
2022/04/08 04:43:48;;;;;;;8.32;1.35;;;;;;;3.16;100.00;99837.75;5067724;28;20062;-54
2022/04/08 04:46:16;;;;;;;5.93;1.45;;;;;;;3.03;100.00;99851.38;5068299;28;20079;-58
2022/04/08 04:48:44;;;;;;;4.63;1.33;;;;;;;2.97;100.00;99854.28;5066642;28;20490;-58
2022/04/08 04:51:16;;;;;;;4.22;1.67;;;;;;;2.98;100.00;99852.50;5067813;28;20048;-58
2022/04/08 04:53:44;;;;;;;8.07;1.67;;;;;;;2.95;100.00;99861.28;5067965;28;20052;-58
2022/04/08 04:56:12;;;;;;;7.30;1.30;;;;;;;2.95;100.00;99855.28;5068267;28;20041;-56
2022/04/08 04:58:40;;;;;;;7.07;1.33;;;;;;;2.90;100.00;99854.66;5067826;28;20052;-54
2022/04/08 05:01:08;;;;;;;5.13;1.27;;;;;;;2.86;100.00;99851.34;5066741;28;20052;-55
2022/04/08 05:03:40;;;;;;;6.05;1.38;;;;;;;2.90;100.00;99846.84;5067005;28;20059;-56
2022/04/08 05:06:09;;;;;;;7.03;1.55;;;;;;;2.86;100.00;99848.75;5067366;28;20074;-56
2022/04/08 05:08:38;;;;;;;7.95;1.98;;;;;;;2.79;100.00;99849.97;5067732;28;20426;-58
2022/04/08 05:11:06;;;;;;;7.70;1.90;;;;;;;2.76;100.00;99853.56;5068066;28;20090;-58
2022/04/08 05:13:34;;;;;;;8.45;1.98;;;;;;;2.69;100.00;99847.81;5067764;28;20052;-58
2022/04/08 05:16:03;;;;;;;10.65;2.38;;;;;;;2.76;100.00;99837.16;5067796;28;20044;-58
2022/04/08 05:18:31;;;;;;;5.55;1.60;;;;;;;2.77;100.00;99841.41;5065927;28;20738;-58
2022/04/08 05:20:59;;;;;;;10.02;2.42;;;;;;;2.80;100.00;99841.28;5067945;28;20052;-54
2022/04/08 05:23:29;;;;;;;9.60;2.10;;;;;;;2.82;100.00;99842.88;5067765;28;20048;-55
2022/04/08 05:25:59;;;;;;;8.80;1.77;;;;;;;2.80;100.00;99843.88;5067748;28;20067;-55
2022/04/08 05:28:27;;;;;;;8.32;2.05;;;;;;;2.87;100.00;99847.84;5067281;28;20055;-58
2022/04/08 05:30:55;;;;;;;13.27;2.20;;;;;;;2.82;100.00;99847.22;5067749;28;20055;-55
2022/04/08 05:33:23;;;;;;;7.95;2.50;;;;;;;2.84;100.00;99842.81;5065964;28;20055;-54
2022/04/08 05:35:51;;;;;;;10.43;2.05;;;;;;;2.81;100.00;99841.19;5067107;28;20547;-58
2022/04/08 05:38:20;;;;;;;11.70;2.40;;;;;;;2.85;100.00;99847.06;5067602;28;20450;-56
2022/04/08 05:40:49;;;;;;;15.77;3.08;;;;;;;2.84;100.00;99854.03;5067521;28;20072;-58
2022/04/08 05:43:19;;;;;;;10.02;2.00;;;;;;;2.87;100.00;99847.84;5070089;28;20053;-58
2022/04/08 05:45:47;;;;;;;12.82;3.08;;;;;;;2.86;100.00;99847.00;5071427;28;20114;-58
2022/04/08 05:48:15;;;;;;;11.18;2.72;;;;;;;2.92;100.00;99839.81;5069376;28;20052;-58
2022/04/08 05:50:43;;;;;;;8.68;2.10;;;;;;;2.99;100.00;99836.00;5071136;28;20068;-58
2022/04/08 05:53:11;;;;;;;9.18;2.40;;;;;;;2.97;100.00;99833.50;5071241;28;20102;-58
2022/04/08 05:56:02;;;;;;;15.25;3.72;;;;;;;3.03;100.00;99832.34;5070946;28;20080;-54
2022/04/08 05:58:32;;;;;;;9.10;2.10;;;;;;;3.08;100.00;99834.72;5070491;28;20131;-54
2022/04/08 06:01:01;;;;;;;9.65;2.50;;;;;;;3.12;100.00;99839.69;5070820;28;20040;-56
2022/04/08 06:03:29;;;;;;;13.80;3.00;;;;;;;3.18;100.00;99849.75;5069342;28;20113;-55
2022/04/08 06:05:57;;;;;;;9.40;2.17;;;;;;;3.24;100.00;99847.78;5070524;28;20045;-56
2022/04/08 06:08:25;;;;;;;14.35;2.95;;;;;;;3.25;100.00;99834.69;5071137;28;20121;-55
2022/04/08 06:10:53;;;;;;;9.10;2.85;;;;;;;3.32;100.00;99825.66;5071173;28;20052;-57
2022/04/08 06:13:24;;;;;;;10.25;2.20;;;;;;;3.35;100.00;99828.13;5070365;28;20048;-55
2022/04/08 06:15:55;;;;;;;11.32;2.40;;;;;;;3.41;100.00;99821.78;5070000;28;20523;-56
2022/04/08 06:18:23;;;;;;;13.43;2.95;;;;;;;3.49;100.00;99822.22;5068072;28;20044;-56
2022/04/08 06:20:51;;;;;;;8.32;2.65;;;;;;;3.53;100.00;99834.13;5070183;28;20048;-56
2022/04/08 06:23:19;;;;;;;9.68;2.60;;;;;;;3.58;100.00;99828.69;5070372;28;20052;-54
2022/04/08 06:25:48;;;;;;;10.80;2.80;;;;;;;3.69;100.00;99826.34;5070678;28;20048;-53
2022/04/08 06:28:16;;;;;;;10.27;2.58;;;;;;;3.73;100.00;99833.06;5070102;28;20506;-54
2022/04/08 06:30:44;;;;;;;8.45;3.25;;;;;;;3.79;100.00;99844.06;5070524;28;20056;-54
2022/04/08 06:33:14;;;;;;;8.93;2.35;;;;;;;3.80;100.00;99837.97;5068773;28;20052;-55
2022/04/08 06:35:42;;;;;;;12.30;3.28;;;;;;;3.84;100.00;99832.50;5070595;28;20048;-55
2022/04/08 06:38:10;;;;;;;10.07;3.25;;;;;;;4.02;100.00;99835.03;5069976;28;20102;-54
2022/04/08 06:40:38;;;;;;;8.35;3.17;;;;;;;4.03;100.00;99834.13;5070361;28;20056;-58
2022/04/08 06:43:08;;;;;;;9.18;2.83;;;;;;;4.11;100.00;99837.16;5069688;28;20051;-59
2022/04/08 06:45:37;;;;;;;8.60;2.53;;;;;;;4.14;100.00;99838.75;5070452;28;20047;-59
2022/04/08 06:48:06;;;;;;;10.80;2.90;;;;;;;4.21;100.00;99835.75;5067934;28;20049;-57
2022/04/08 06:50:35;;;;;;;9.38;1.90;;;;;;;4.27;100.00;99839.78;5069637;28;20566;-58
2022/04/08 06:53:04;;;;;;;8.25;2.33;;;;;;;4.35;100.00;99834.13;5069823;28;20064;-58
2022/04/08 06:55:34;;;;;;;8.68;2.33;;;;;;;4.45;100.00;99830.09;5070131;28;20387;-58
2022/04/08 06:58:03;;;;;;;7.97;2.28;;;;;;;4.50;100.00;99832.44;5069278;28;20040;-58
2022/04/08 07:00:32;;;;;;;9.27;2.08;;;;;;;4.55;100.00;99826.06;5069595;28;20512;-57
2022/04/08 07:03:01;;;;;;;9.85;2.22;;;;;;;4.62;100.00;99836.97;5067951;28;20044;-58
2022/04/08 07:05:29;;;;;;;7.75;2.38;;;;;;;4.71;100.00;99828.63;5069530;28;20091;-58
2022/04/08 07:07:59;;;;;;;8.25;2.13;;;;;;;4.81;100.00;99838.53;5068485;28;20095;-58
2022/04/08 07:10:27;;;;;;;8.30;2.25;;;;;;;4.89;100.00;99831.09;5069652;28;20044;-58
2022/04/08 07:12:56;;;;;;;7.97;2.00;;;;;;;4.96;100.00;99832.41;5068679;28;20040;-59
2022/04/08 07:15:24;;;;;;;11.32;2.63;;;;;;;5.07;100.00;99830.06;5069892;28;20048;-57
2022/04/08 07:17:52;;;;;;;9.40;2.20;;;;;;;5.17;100.00;99827.75;5067295;28;20044;-54
2022/04/08 07:20:20;;;;;;;4.82;1.75;;;;;;;5.26;100.00;99834.16;5069123;28;20049;-56
2022/04/08 07:22:48;;;;;;;6.95;2.15;;;;;;;5.36;100.00;99824.06;5069351;28;20109;-56
2022/04/08 07:25:18;;;;;;;6.57;2.22;;;;;;;5.41;100.00;99835.03;5069405;28;20078;-55
2022/04/08 07:27:48;;;;;;;8.02;2.10;;;;;;;5.55;100.00;99822.00;5068826;28;20132;-55
2022/04/08 07:30:18;;;;;;;9.73;1.90;;;;;;;5.64;100.00;99823.22;5069603;28;20059;-56
2022/04/08 07:32:48;;;;;;;7.07;2.08;;;;;;;5.71;100.00;99832.34;5067368;28;20110;-57
2022/04/08 07:35:16;;;;;;;7.03;2.08;;;;;;;5.81;100.00;99829.16;5068481;28;20515;-56
2022/04/08 07:37:45;;;;;;;5.05;1.83;;;;;;;5.91;100.00;99820.69;5068120;28;20048;-56
2022/04/08 07:40:15;;;;;;;4.78;2.03;;;;;;;5.97;100.00;99826.47;5068710;28;20080;-55
2022/04/08 07:42:44;;;;;;;9.52;2.35;;;;;;;6.03;100.00;99819.13;5069001;28;20480;-56
2022/04/08 07:45:12;;;;;;;6.40;2.17;;;;;;;6.11;100.00;99810.81;5068979;28;20441;-56
2022/04/08 07:47:41;;;;;;;6.22;1.98;;;;;;;6.22;100.00;99818.78;5067541;28;20090;-55
2022/04/08 07:50:10;;;;;;;7.45;2.15;;;;;;;6.23;100.00;99824.84;5068593;28;20051;-56
2022/04/08 07:52:40;;;;;;;8.82;2.08;;;;;;;6.30;100.00;99818.31;5068904;28;20047;-56
2022/04/08 07:55:09;;;;;;;6.10;1.92;;;;;;;6.36;100.00;99824.94;5068140;28;20109;-55
2022/04/08 07:57:46;;;;;;;15.98;3.92;;;;;;;6.46;100.00;99820.78;5068110;28;20052;-56
2022/04/08 08:00:15;;;;;;;4.05;1.77;;;;;;;6.51;100.00;99810.88;5067613;28;20394;-57
2022/04/08 08:02:43;;;;;;;6.22;1.80;;;;;;;6.57;99.01;99813.09;5067396;28;20052;-57
2022/04/08 08:05:12;;;;;;;10.43;2.28;;;;;;;6.62;98.14;99807.56;5067945;28;20044;-56
2022/04/08 08:07:45;;;;;;;6.85;1.45;;;;;;;6.74;97.70;99809.38;5068327;28;20047;-57
2022/04/08 08:10:16;;;;;;;5.70;1.58;;;;;;;6.83;98.36;99805.34;5068717;28;20048;-57
2022/04/08 08:12:46;;;;;;;7.78;1.80;;;;;;;6.96;97.71;99807.13;5068029;28;20060;-55
2022/04/08 08:15:15;;;;;;;6.43;1.67;;;;;;;6.98;95.03;99815.69;5067118;28;20055;-58
2022/04/08 08:17:44;;;;;;;6.30;1.60;;;;;;;6.98;94.10;99811.31;5067367;28;20072;-56
2022/04/08 08:20:15;;;;;;;5.57;1.50;;;;;;;7.13;92.19;99817.31;5068580;28;20050;-56
2022/04/08 08:22:43;;;;;;;6.60;1.90;;;;;;;7.19;93.01;99819.50;5069078;28;20052;-57
2022/04/08 08:25:12;;;;;;;3.22;1.42;;;;;;;7.28;95.06;99816.25;5068775;28;20935;-55
2022/04/08 08:27:41;;;;;;;5.78;1.85;;;;;;;7.38;93.59;99813.03;5068087;28;20048;-56
2022/04/08 08:30:15;;;;;;;5.22;1.50;;;;;;;7.26;91.05;99810.28;5068101;28;20040;-56
2022/04/08 08:32:45;;;;;;;5.38;2.03;;;;;;;7.37;92.91;99803.50;5065925;28;20048;-57
2022/04/08 08:35:15;;;;;;;8.05;1.80;;;;;;;7.50;92.70;99809.56;5067894;28;20410;-56
2022/04/08 08:37:43;;;;;;;6.25;1.85;;;;;;;7.55;89.92;99799.63;5068134;28;20049;-57
2022/04/08 08:40:12;;;;;;;6.63;1.85;;;;;;;7.69;90.90;99808.28;5068067;28;20059;-57
2022/04/08 08:42:42;;;;;;;4.35;1.60;;;;;;;7.76;90.86;99805.13;5068290;28;20553;-55
2022/04/08 08:45:12;;;;;;;4.43;1.40;;;;;;;7.87;89.02;99793.09;5068135;28;20128;-57
2022/04/08 08:47:41;;;;;;;3.83;1.50;;;;;;;8.00;87.20;99793.06;5067033;28;20036;-57
2022/04/08 08:50:10;;;;;;;11.13;2.10;;;;;;;8.08;85.71;99794.16;5067244;28;20080;-57
2022/04/08 08:52:38;;;;;;;6.25;1.95;;;;;;;8.08;85.72;99780.25;5068403;28;20079;-57
2022/04/08 08:55:07;;;;;;;5.05;1.40;;;;;;;8.23;83.45;99773.91;5068304;28;20044;-56
2022/04/08 08:57:36;;;;;;;6.82;1.60;;;;;;;8.18;82.82;99775.19;5067967;28;20040;-56
2022/04/08 09:00:12;;;;;;;5.85;1.55;;;;;;;8.26;86.75;99776.31;5067894;28;20048;-57
2022/04/08 09:02:42;;;;;;;7.20;1.90;;;;;;;8.28;83.86;99770.97;5066919;28;20529;-57
2022/04/08 09:05:13;;;;;;;7.50;2.17;;;;;;;8.27;84.05;99762.25;5067557;28;20507;-56
2022/04/08 09:07:42;;;;;;;7.05;1.77;;;;;;;8.22;84.54;99761.75;5067536;28;20076;-57
2022/04/08 09:10:10;;;;;;;5.35;1.60;;;;;;;8.45;86.49;99773.22;5067360;28;20079;-57
2022/04/08 09:12:39;;;;;;;6.00;1.70;;;;;;;8.61;84.33;99769.47;5067756;28;20384;-57
2022/04/08 09:15:09;;;;;;;6.75;2.10;;;;;;;8.66;83.00;99764.72;5067576;28;20048;-57
2022/04/08 09:17:37;;;;;;;8.07;2.00;;;;;;;8.79;82.99;99764.63;5069480;28;20084;-57
2022/04/08 09:20:08;;;;;;;8.07;2.13;;;;;;;8.99;81.18;99754.44;5070626;28;20549;-57
2022/04/08 09:22:37;;;;;;;6.72;2.13;;;;;;;9.09;82.76;99758.88;5071336;28;20053;-56
2022/04/08 09:25:09;;;;;;;7.38;2.13;;;;;;;9.18;82.38;99757.31;5071570;28;20060;-57
2022/04/08 09:27:39;;;;;;;8.52;2.35;;;;;;;9.28;83.08;99750.44;5071319;28;20059;-58
2022/04/08 09:30:08;;;;;;;6.80;2.08;;;;;;;9.46;82.97;99745.53;5071178;28;20044;-57
2022/04/08 09:32:37;;;;;;;8.30;2.08;;;;;;;9.48;79.71;99750.66;5070866;28;20867;-57
2022/04/08 09:35:09;;;;;;;8.70;2.55;;;;;;;9.55;78.88;99757.09;5071016;28;20047;-56
2022/04/08 09:37:43;;;;;;;7.60;1.90;;;;;;;9.48;80.14;99748.03;5071121;28;20044;-57
2022/04/08 09:40:12;;;;;;;5.47;2.10;;;;;;;9.63;78.71;99738.13;5070872;28;20056;-57
2022/04/08 09:42:44;;;;;;;8.07;2.38;;;;;;;9.69;80.16;99736.81;5071288;28;20414;-57
2022/04/08 09:45:14;;;;;;;5.78;2.00;;;;;;;9.76;77.40;99743.25;5071368;28;20040;-56
2022/04/08 09:47:42;;;;;;;10.00;1.92;;;;;;;9.62;77.15;99746.97;5069886;28;20053;-57
2022/04/08 09:50:11;;;;;;;8.30;2.53;;;;;;;9.44;78.30;99751.88;5071173;28;20056;-58
2022/04/08 09:52:40;;;;;;;7.68;1.95;;;;;;;9.57;76.63;99734.22;5071446;28;20110;-57
2022/04/08 09:55:09;;;;;;;6.00;1.80;;;;;;;9.65;76.54;99728.34;5070679;28;20055;-56
2022/04/08 09:57:40;;;;;;;5.93;1.88;;;;;;;9.78;75.89;99733.47;5070538;28;20056;-56
2022/04/08 10:00:09;;;;;;;6.10;1.85;;;;;;;9.63;75.87;99731.09;5070890;28;20509;-56
2022/04/08 10:02:41;;;;;;;10.23;2.08;;;;;;;9.82;76.14;99727.00;5069860;28;20519;-57
2022/04/08 10:05:10;;;;;;;9.10;1.90;;;;;;;9.80;75.90;99728.91;5070750;28;20044;-56
2022/04/08 10:07:42;;;;;;;7.05;2.00;;;;;;;9.81;76.82;99731.41;5071359;28;20430;-56
2022/04/08 10:10:24;;;;;;;6.47;2.17;;;;;;;9.93;76.33;99723.53;5071163;28;20047;-56
2022/04/08 10:13:08;;;;;;;9.90;2.78;;;;;;;9.96;76.61;99734.59;5070410;28;20044;-56
2022/04/08 10:15:39;;;;;;;7.57;2.53;;;;;;;9.94;76.48;99728.66;5069838;28;20106;-56
2022/04/08 10:18:08;;;;;;;6.90;3.00;;;;;;;10.01;76.12;99722.88;5068468;28;20511;-56
2022/04/08 10:20:39;;;;;;;8.70;2.75;;;;;;;10.02;74.29;99724.56;5070627;28;20820;-57
2022/04/08 10:23:10;;;;;;;7.97;2.38;;;;;;;10.03;73.72;99728.88;5070482;28;20500;-56
2022/04/08 10:25:40;;;;;;;8.57;1.90;;;;;;;10.12;72.91;99728.13;5070740;28;20033;-56
2022/04/08 10:28:09;;;;;;;7.28;2.03;;;;;;;10.13;71.81;99732.44;5069011;28;20056;-56
2022/04/08 10:30:45;;;;;;;6.45;2.25;;;;;;;9.89;71.69;99730.81;5071083;28;20041;-56
2022/04/08 10:33:23;;;;;;;8.57;2.05;;;;;;;9.93;72.79;99736.66;5068991;28;20045;-56
2022/04/08 10:35:53;;;;;;;4.90;1.83;;;;;;;9.88;72.94;99731.75;5069939;28;20044;-56
2022/04/08 10:38:36;;;;;;;6.15;2.28;;;;;;;10.03;72.20;99731.50;5069980;28;20048;-58
2022/04/08 10:41:08;;;;;;;9.90;2.03;;;;;;;9.96;73.07;99731.97;5069742;28;20047;-58
2022/04/08 10:43:43;;;;;;;;;;;;;;;10.06;71.96;99731.25;5069947;28;20167;-58
2022/04/08 10:46:12;;;;;;;6.97;1.98;;;;;;;9.94;70.74;99731.28;5069873;28;19920;-57
2022/04/08 10:48:41;;;;;;;6.35;1.98;;;;;;;9.94;72.32;99730.47;5068747;28;20472;-57
2022/04/08 10:51:12;;;;;;;11.05;2.45;;;;;;;10.15;72.97;99726.06;5070000;28;20049;-58
2022/04/08 10:53:43;;;;;;;8.27;2.10;;;;;;;10.15;72.67;99718.19;5070640;28;20475;-58
2022/04/08 10:56:13;;;;;;;9.57;2.20;;;;;;;10.28;69.44;99715.41;5070152;28;20043;-58
2022/04/08 10:58:43;;;;;;;5.32;2.08;;;;;;;10.27;70.27;99703.22;5069363;28;20076;-58
2022/04/08 11:01:16;;;;;;;10.90;2.50;;;;;;;10.50;71.37;99716.31;5069569;28;20053;-58
2022/04/08 11:03:53;;;;;;;7.70;2.33;;;;;;;10.50;70.32;99718.94;5068255;28;20376;-56
2022/04/08 11:06:24;;;;;;;8.73;2.22;;;;;;;10.47;69.66;99721.81;5070062;28;20362;-58
2022/04/08 11:08:54;;;;;;;8.48;2.20;;;;;;;10.38;68.19;99727.84;5069545;28;20040;-58
2022/04/08 11:11:30;;;;;;;7.38;2.60;;;;;;;10.21;68.33;99724.78;5070026;28;20049;-56
2022/04/08 11:13:59;;;;;;;7.60;2.35;;;;;;;10.30;69.13;99731.06;5069127;28;20071;-57
2022/04/08 11:16:29;;;;;;;9.38;2.80;;;;;;;10.41;68.00;99730.22;5068295;28;20056;-57
2022/04/08 11:18:57;;;;;;;6.53;2.20;;;;;;;10.43;68.68;99725.66;5067222;28;20052;-58
2022/04/08 11:21:26;;;;;;;7.68;2.63;;;;;;;10.38;69.29;99733.09;5069192;28;20048;-57
2022/04/08 11:23:59;;;;;;;8.30;2.47;;;;;;;10.47;67.49;99722.66;5069303;28;20044;-58
2022/04/08 11:26:29;;;;;;;5.47;2.10;;;;;;;10.54;68.19;99715.09;5069558;28;20052;-58
2022/04/08 11:29:08;;;;;;;6.95;2.42;;;;;;;10.65;67.09;99706.31;5068723;28;20045;-58
2022/04/08 11:31:37;;;;;;;5.85;2.30;;;;;;;10.70;66.65;99695.41;5069457;28;20048;-58
2022/04/08 11:34:05;;;;;;;9.38;2.58;;;;;;;10.76;66.50;99694.91;5067726;28;20368;-60
2022/04/08 11:36:34;;;;;;;10.80;2.95;;;;;;;10.65;66.17;99693.16;5069127;28;20152;-60
2022/04/08 11:39:05;;;;;;;10.77;2.55;;;;;;;10.55;67.63;99698.38;5067702;28;20142;-60
2022/04/08 11:41:36;;;;;;;8.23;2.65;;;;;;;10.79;68.63;99690.19;5069086;28;20051;-60
2022/04/08 11:44:05;;;;;;;7.60;2.80;;;;;;;10.76;67.38;99693.09;5068612;28;20053;-60